Home > Products > Valid Products > TAF

000
FTUS43 KICT 310903 AAB
TAFICT
TAF AMD
KICT 310903Z 3109/0106 36014KT P6SM SCT020
      TEMPO 3109/3112 BKN022
     FM311600 02017G24KT P6SM SCT030
     FM312300 05006KT P6SM SKC=



000
FTUS43 KICT 310855 AAA
TAFHUT
TAF AMD
KHUT 310855Z 3109/0106 36015G22KT P6SM BKN020
     FM311600 02016G23KT P6SM SKC
     FM312300 05006KT P6SM SKC=



000
FTUS43 KICT 310522
TAFHUT
TAF
KHUT 310522Z 3106/0106 36014KT P6SM SKC
     FM310800 36015G22KT P6SM SCT020
     FM311600 02016G23KT P6SM SKC
     FM312300 05006KT P6SM SKC=



000
FTUS43 KICT 310522
TAFSLN
TAF
KSLN 310522Z 3106/0106 36014G20KT P6SM SCT020
      TEMPO 3106/3110 BKN022
     FM311500 03014G21KT P6SM SCT030
     FM312300 06006KT P6SM SKC=



000
FTUS43 KICT 310522
TAFCNU
TAF
KCNU 310522Z 3106/0106 35010KT P6SM SKC
     FM310900 36014G20KT P6SM BKN022
     FM311500 01017G25KT P6SM SCT020
     FM312300 03008KT P6SM SKC=



000
FTUS43 KICT 310522
TAFRSL
TAF
KRSL 310522Z 3106/0106 01015KT P6SM SCT020
     FM311400 03012KT P6SM SKC
     FM312300 09007KT P6SM SKC=



000
FTUS43 KICT 310522
TAFICT
TAF
KICT 310522Z 3106/0106 36014KT P6SM SCT020
      TEMPO 3108/3112 BKN022
     FM311600 02017G24KT P6SM SCT030
     FM312300 05006KT P6SM SKC=



000
FTUS43 KICT 302330
TAFHUT
TAF
KHUT 302330Z 3100/3124 33013KT P6SM SKC
     FM310400 36015KT P6SM SKC
     FM310800 36015G22KT P6SM SCT020
     FM311600 02016G23KT P6SM SKC=



000
FTUS43 KICT 302330
TAFRSL
TAF
KRSL 302330Z 3100/3124 36015KT P6SM SKC
     FM310900 02015KT P6SM SCT025
     FM311700 04014G21KT P6SM SKC=



000
FTUS43 KICT 302330
TAFCNU
TAF
KCNU 302330Z 3100/3124 33009KT P6SM SKC
     FM310900 35015G22KT P6SM BKN025
     FM311400 01017G25KT P6SM SCT020=



000
FTUS43 KICT 302330
TAFSLN
TAF
KSLN 302330Z 3100/3124 36014KT P6SM SKC
     FM310800 01015G21KT P6SM SCT025
     FM311600 04014G20KT P6SM SKC=



000
FTUS43 KICT 302330
TAFICT
TAF
KICT 302330Z 3100/3124 33011KT P6SM SKC
     FM310400 36016KT P6SM SKC
     FM310800 36015G22KT P6SM SCT020
     FM311600 02017G25KT P6SM SKC=



000
FTUS43 KICT 301720
TAFSLN
TAF
KSLN 301720Z 3018/3118 33018G22KT P6SM SKC
     FM310000 35008KT P6SM SKC
     FM310300 36013KT P6SM SKC
     FM310800 03015KT P6SM SCT025=



000
FTUS43 KICT 301720
TAFHUT
TAF
KHUT 301720Z 3018/3118 35015G22KT P6SM SKC
     FM310000 35008KT P6SM SKC
     FM310400 36015KT P6SM SKC
     FM311100 01015G20KT P6SM SCT020=



000
FTUS43 KICT 301720
TAFICT
TAF
KICT 301720Z 3018/3118 35018G25KT P6SM SKC
     FM310000 35008KT P6SM SKC
     FM310400 36015KT P6SM SKC
     FM311200 01015G22KT P6SM SCT020=



000
FTUS43 KICT 301720
TAFCNU
TAF
KCNU 301720Z 3018/3118 31016G23KT P6SM SKC
     FM310000 35008KT P6SM SKC
     FM310500 35013KT P6SM SKC
     FM311000 01016KT P6SM BKN025=



000
FTUS43 KICT 301720
TAFRSL
TAF
KRSL 301720Z 3018/3118 33018G22KT P6SM SKC
     FM302300 36010KT P6SM SKC
     FM310300 01013KT P6SM SKC
     FM310900 03015KT P6SM SCT025=



000
FTUS43 KICT 301559 AAB
TAFCNU
TAF AMD
KCNU 301559Z 3016/3112 30013KT P6SM SCT150
     FM301700 33015G22KT P6SM SCT200
     FM310000 34011KT P6SM SKC=



000
FTUS43 KICT 301505 AAA
TAFCNU
TAF AMD
KCNU 301505Z 3015/3112 25013KT P6SM SCT150
     FM301900 33015G22KT P6SM SCT200
     FM310000 34011KT P6SM SKC=



000
FTUS43 KICT 301503 AAB
TAFHUT
TAF AMD
KHUT 301503Z 3015/3112 35016G23KT P6SM SKC
     FM310000 36010KT P6SM SKC=



000
FTUS43 KICT 301502 AAC
TAFICT
TAF AMD
KICT 301502Z 3015/3112 35016G23KT P6SM SKC
     FM310000 36011KT P6SM SKC=



000
FTUS43 KICT 301230 AAB
TAFICT
TAF AMD
KICT 301230Z 3012/3112 25009KT P6SM SCT150
     FM301400 32011KT P6SM SCT200
     FM301600 35016G23KT P6SM SKC
     FM310000 36011KT P6SM SKC=



000
FTUS43 KICT 301228 AAA
TAFHUT
TAF AMD
KHUT 301228Z 3012/3112 33011KT P6SM SCT200
     FM301600 35016G23KT P6SM SKC
     FM310000 36010KT P6SM SKC=



000
FTUS43 KICT 301227 AAA
TAFSLN
TAF AMD
KSLN 301227Z 3012/3112 33012KT P6SM SKC
     FM301500 34017G25KT P6SM SKC
     FM310000 35011KT P6SM SKC=



000
FTUS43 KICT 301124
TAFCNU
TAF
KCNU 301124Z 3012/3112 21008KT P6SM VCSH BKN130
     FM301600 27011KT P6SM SCT150
     FM301900 33015G22KT P6SM SCT200
     FM310000 34011KT P6SM SKC=



000
FTUS43 KICT 301124
TAFHUT
TAF
KHUT 301124Z 3012/3112 28009KT P6SM FEW150
     FM301400 33011KT P6SM SCT200
     FM301700 35016G23KT P6SM SKC
     FM310000 36010KT P6SM SKC=



000
FTUS43 KICT 301124
TAFSLN
TAF
KSLN 301124Z 3012/3112 27009KT P6SM SKC
     FM301400 33012KT P6SM SKC
     FM301600 34017G25KT P6SM SKC
     FM310000 35011KT P6SM SKC=



000
FTUS43 KICT 301124
TAFICT
TAF
KICT 301124Z 3012/3112 25010KT P6SM SCT150
     FM301500 32011KT P6SM SCT200
     FM301700 35016G23KT P6SM SKC
     FM310000 36011KT P6SM SKC=



000
FTUS43 KICT 301124
TAFRSL
TAF
KRSL 301124Z 3012/3112 32013KT P6SM SKC
     FM301600 34018G26KT P6SM SKC
     FM310000 35013KT P6SM SKC=



000
FTUS43 KICT 300520
TAFICT
TAF
KICT 300520Z 3006/3106 20008KT P6SM SKC
     FM300900 23008KT P6SM SKC
     FM301300 28012KT P6SM SCT200
     FM301500 33014KT P6SM SCT200
     FM301700 35016G23KT P6SM SCT200
     FM310000 35012KT P6SM SKC=



000
FTUS43 KICT 300520
TAFCNU
TAF
KCNU 300520Z 3006/3106 16006KT P6SM SKC
     FM301300 20010KT P6SM SCT200
     FM301600 27012KT P6SM SCT200
     FM301900 34015G22KT P6SM SCT200
     FM310000 34011KT P6SM SKC=



000
FTUS43 KICT 300520
TAFRSL
TAF
KRSL 300520Z 3006/3106 19011KT P6SM SCT200
     FM300700 25010KT P6SM SCT250
     FM301100 34010KT P6SM SCT200
     FM301600 34016G23KT P6SM SCT200
     FM310000 35012KT P6SM SKC=



000
FTUS43 KICT 300520
TAFSLN
TAF
KSLN 300520Z 3006/3106 19007KT P6SM SCT200
     FM300800 23010KT P6SM SCT250
     FM301200 28011KT P6SM SCT200
     FM301400 33013KT P6SM SCT200
     FM301800 34015G23KT P6SM SCT200
     FM310000 35011KT P6SM SKC=



000
FTUS43 KICT 300520
TAFHUT
TAF
KHUT 300520Z 3006/3106 20008KT P6SM SKC
     FM301000 23008KT P6SM SKC
     FM301200 27012KT P6SM SCT200
     FM301400 33014KT P6SM SCT200
     FM301600 35016G23KT P6SM SCT200
     FM310000 35007KT P6SM SKC=



000
FTUS43 KICT 292326
TAFCNU
TAF
KCNU 292326Z 3000/3024 16006KT P6SM SKC
     FM301300 19008KT P6SM SCT200
     FM301600 27012KT P6SM SCT200
     FM301900 34015G22KT P6SM SCT200=



000
FTUS43 KICT 292326
TAFHUT
TAF
KHUT 292326Z 3000/3024 20009KT P6SM SKC
     FM300900 23011KT P6SM SKC
     FM301200 27012KT P6SM SCT200
     FM301300 33014KT P6SM SCT200
     FM301600 34016G23KT P6SM SCT200=



000
FTUS43 KICT 292326
TAFRSL
TAF
KRSL 292326Z 3000/3024 21011KT P6SM SKC
     FM300700 25011KT P6SM SCT250
     FM301100 33013KT P6SM SCT200
     FM301600 34016G24KT P6SM SCT200=



000
FTUS43 KICT 292326
TAFSLN
TAF
KSLN 292326Z 3000/3024 19007KT P6SM SKC
     FM300800 25011KT P6SM SCT250
     FM301300 33013KT P6SM SCT200
     FM301700 34016G24KT P6SM SCT200=



000
FTUS43 KICT 292326
TAFICT
TAF
KICT 292326Z 3000/3024 20007KT P6SM SKC
     FM300900 23010KT P6SM SKC
     FM301300 28012KT P6SM SCT200
     FM301400 33014KT P6SM SCT200
     FM301700 34016G23KT P6SM SCT200=



000
FTUS43 KICT 292006 AAA
TAFRSL
TAF AMD
KRSL 292006Z 2920/3018 22013KT P6SM SKC
     FM300000 19010KT P6SM SKC
     FM300700 23010KT P6SM SCT250
     FM301000 33013KT P6SM SKC=



000
FTUS43 KICT 292005 AAA
TAFICT
TAF AMD
KICT 292005Z 2920/3018 22014KT P6SM SKC
     FM300000 19008KT P6SM SKC
     FM300900 23010KT P6SM SCT250
     FM301300 33012KT P6SM SKC=



000
FTUS43 KICT 292005 AAA
TAFHUT
TAF AMD
KHUT 292005Z 2920/3018 22013G21KT P6SM SKC
     FM300000 19010KT P6SM SKC
     FM300900 23010KT P6SM SCT250
     FM301200 33012KT P6SM SKC=



000
FTUS43 KICT 291721
TAFICT
TAF
KICT 291721Z 2918/3018 18010KT P6SM SKC
     FM300900 23010KT P6SM SCT250
     FM301300 33012KT P6SM SKC=



000
FTUS43 KICT 291721
TAFCNU
TAF
KCNU 291721Z 2918/3018 16006KT P6SM SKC
     FM301600 33010KT P6SM SKC=



000
FTUS43 KICT 291721
TAFRSL
TAF
KRSL 291721Z 2918/3018 16010KT P6SM SKC
      TEMPO 2919/2923 17015G22KT
     FM300000 19010KT P6SM SKC
     FM300700 23010KT P6SM SCT250
     FM301000 33013KT P6SM SKC=



000
FTUS43 KICT 291721
TAFSLN
TAF
KSLN 291721Z 2918/3018 16010KT P6SM SKC
      TEMPO 2919/2923 17015G20KT
     FM300000 19010KT P6SM SKC
     FM300800 23010KT P6SM SCT250
     FM301100 33013KT P6SM SKC=



000
FTUS43 KICT 291721
TAFHUT
TAF
KHUT 291721Z 2918/3018 18013KT P6SM SKC
     FM300900 23010KT P6SM SCT250
     FM301200 33012KT P6SM SKC=



000
FTUS43 KICT 291122
TAFSLN
TAF
KSLN 291122Z 2912/3012 VRB03KT P6SM SKC
     FM291900 18009KT P6SM SKC=



000
FTUS43 KICT 291122
TAFICT
TAF
KICT 291122Z 2912/3012 VRB03KT P6SM SKC
     FM292100 17008KT P6SM SKC=



000
FTUS43 KICT 291122
TAFHUT
TAF
KHUT 291122Z 2912/3012 VRB03KT P6SM SKC
     FM292100 18009KT P6SM SKC=



000
FTUS43 KICT 291122
TAFRSL
TAF
KRSL 291122Z 2912/3012 VRB03KT P6SM SKC
     FM291700 19012KT P6SM SKC
     FM300600 29012KT P6SM SKC=



000
FTUS43 KICT 291122
TAFCNU
TAF
KCNU 291122Z 2912/3012 VRB03KT P6SM SKC
     FM292300 17006KT P6SM SKC=



000
FTUS43 KICT 290550
TAFHUT
TAF
KHUT 290550Z 2906/3006 VRB03KT P6SM SKC
     FM292100 17008KT P6SM SKC=



000
FTUS43 KICT 290550
TAFSLN
TAF
KSLN 290550Z 2906/3006 VRB03KT P6SM SKC
     FM291900 18009KT P6SM SKC=



000
FTUS43 KICT 290550
TAFICT
TAF
KICT 290550Z 2906/3006 VRB03KT P6SM SKC
     FM292100 17008KT P6SM SKC=



000
FTUS43 KICT 290550
TAFRSL
TAF
KRSL 290550Z 2906/3006 VRB03KT P6SM SKC
     FM291700 18012KT P6SM SKC=



000
FTUS43 KICT 290550
TAFCNU
TAF
KCNU 290550Z 2906/3006 VRB03KT P6SM SKC
     FM292300 17006KT P6SM SKC=



000
FTUS43 KICT 282327
TAFICT
TAF
KICT 282327Z 2900/2924 VRB03KT P6SM SCT150
     FM290200 23004KT P6SM SKC=



000
FTUS43 KICT 282327
TAFHUT
TAF
KHUT 282327Z 2900/2924 29006KT P6SM SKC
     FM290600 25006KT P6SM SCT250=



000
FTUS43 KICT 282327
TAFCNU
TAF
KCNU 282327Z 2900/2924 VRB03KT P6SM SCT250
     FM290400 VRB03KT P6SM SCT250
     FM291400 VRB03KT P6SM SKC=



000
FTUS43 KICT 282327
TAFRSL
TAF
KRSL 282327Z 2900/2924 VRB03KT P6SM SKC
     FM290400 VRB03KT P6SM SCT250=



000
FTUS43 KICT 282327
TAFSLN
TAF
KSLN 282327Z 2900/2924 VRB03KT P6SM SKC
     FM290400 VRB03KT P6SM SCT250=



000
FTUS43 KICT 281723
TAFHUT
TAF
KHUT 281723Z 2818/2918 19007KT P6SM SCT200
     FM290000 24004KT P6SM SKC=



000
FTUS43 KICT 281723
TAFSLN
TAF
KSLN 281723Z 2818/2918 VRB06KT P6SM SCT200
     FM290000 VRB03KT P6SM SKC=



000
FTUS43 KICT 281723
TAFRSL
TAF
KRSL 281723Z 2818/2918 25010KT P6SM SCT200
     FM290000 VRB03KT P6SM SKC=



000
FTUS43 KICT 281723
TAFCNU
TAF
KCNU 281723Z 2818/2918 01008KT P6SM SCT250
     FM290100 VRB03KT P6SM SCT250=



000
FTUS43 KICT 281723
TAFICT
TAF
KICT 281723Z 2818/2918 VRB06KT P6SM SCT200
     FM290200 23004KT P6SM SKC=



000
FTUS43 KICT 281122
TAFCNU
TAF
KCNU 281122Z 2812/2912 31006KT P6SM SCT250
     FM282300 VRB03KT P6SM SKC=



000
FTUS43 KICT 281122
TAFRSL
TAF
KRSL 281122Z 2812/2912 28006KT P6SM SCT250
     FM290000 VRB03KT P6SM SKC=



000
FTUS43 KICT 281122
TAFSLN
TAF
KSLN 281122Z 2812/2912 29006KT P6SM SCT250
     FM290000 VRB03KT P6SM SKC=



000
FTUS43 KICT 281122
TAFHUT
TAF
KHUT 281122Z 2812/2912 31006KT P6SM SCT250
     FM290000 VRB03KT P6SM SKC=



000
FTUS43 KICT 281122
TAFICT
TAF
KICT 281122Z 2812/2912 31006KT P6SM SCT250
     FM290000 VRB03KT P6SM SKC=



    US Dept of Commerce
    National Oceanic and Atmospheric Administration
    National Weather Service
    1325 East West Highway
    Silver Spring, MD 20910
    Page Author: NWS Internet Services Team
Disclaimer
Information Quality
Credits
Glossary
Privacy Policy
Freedom of Information Act (FOIA)
About Us
Career Opportunities